sensor_id;sensor_type;location;lat;lon;timestamp;temperature;humidity
2062;DHT22;11070;51.336;12.340;2023-07-30T00:02:17;17.10;99.90
2062;DHT22;11070;51.336;12.340;2023-07-30T00:04:43;17.00;99.90
2062;DHT22;11070;51.336;12.340;2023-07-30T00:07:09;17.10;99.90
2062;DHT22;11070;51.336;12.340;2023-07-30T00:09:34;17.10;99.90
2062;DHT22;11070;51.336;12.340;2023-07-30T00:12:00;17.00;99.90
2062;DHT22;11070;51.336;12.340;2023-07-30T00:14:27;17.00;99.90
2062;DHT22;11070;51.336;12.340;2023-07-30T00:16:53;17.00;99.90
2062;DHT22;11070;51.336;12.340;2023-07-30T00:19:19;16.90;99.90
2062;DHT22;11070;51.336;12.340;2023-07-30T00:21:44;16.90;99.90
2062;DHT22;11070;51.336;12.340;2023-07-30T00:24:13;16.90;99.90
2062;DHT22;11070;51.336;12.340;2023-07-30T00:26:39;16.90;99.90
2062;DHT22;11070;51.336;12.340;2023-07-30T00:29:04;16.90;99.90
2062;DHT22;11070;51.336;12.340;2023-07-30T00:31:30;16.90;99.90
2062;DHT22;11070;51.336;12.340;2023-07-30T00:33:56;16.90;99.90
2062;DHT22;11070;51.336;12.340;2023-07-30T00:36:21;16.80;99.90
2062;DHT22;11070;51.336;12.340;2023-07-30T00:38:47;16.80;99.90
2062;DHT22;11070;51.336;12.340;2023-07-30T00:41:13;16.80;99.90
2062;DHT22;11070;51.336;12.340;2023-07-30T00:43:38;16.80;99.90
2062;DHT22;11070;51.336;12.340;2023-07-30T00:46:04;16.80;99.90
2062;DHT22;11070;51.336;12.340;2023-07-30T00:48:30;16.80;99.90
2062;DHT22;11070;51.336;12.340;2023-07-30T00:50:57;16.80;99.90
2062;DHT22;11070;51.336;12.340;2023-07-30T00:53:24;16.80;99.90
2062;DHT22;11070;51.336;12.340;2023-07-30T00:55:51;16.80;99.90
2062;DHT22;11070;51.336;12.340;2023-07-30T00:58:18;16.80;99.90
2062;DHT22;11070;51.336;12.340;2023-07-30T01:00:46;16.80;99.90
2062;DHT22;11070;51.336;12.340;2023-07-30T01:03:12;16.80;99.90
2062;DHT22;11070;51.336;12.340;2023-07-30T01:05:38;16.90;99.90
2062;DHT22;11070;51.336;12.340;2023-07-30T01:08:03;16.90;99.90
2062;DHT22;11070;51.336;12.340;2023-07-30T01:10:31;16.90;99.90
2062;DHT22;11070;51.336;12.340;2023-07-30T01:13:01;16.90;99.90
2062;DHT22;11070;51.336;12.340;2023-07-30T01:15:30;16.80;99.90
2062;DHT22;11070;51.336;12.340;2023-07-30T01:17:56;16.80;99.90
2062;DHT22;11070;51.336;12.340;2023-07-30T01:20:22;16.90;99.90
2062;DHT22;11070;51.336;12.340;2023-07-30T01:22:47;16.90;99.90
2062;DHT22;11070;51.336;12.340;2023-07-30T01:25:14;16.90;99.90
2062;DHT22;11070;51.336;12.340;2023-07-30T01:27:47;16.90;99.90
2062;DHT22;11070;51.336;12.340;2023-07-30T01:30:26;16.90;99.90
2062;DHT22;11070;51.336;12.340;2023-07-30T01:32:52;16.80;99.90
2062;DHT22;11070;51.336;12.340;2023-07-30T01:35:22;16.80;99.90
2062;DHT22;11070;51.336;12.340;2023-07-30T01:37:51;16.80;99.90
2062;DHT22;11070;51.336;12.340;2023-07-30T01:40:18;16.80;99.90
2062;DHT22;11070;51.336;12.340;2023-07-30T01:42:44;16.80;99.90
2062;DHT22;11070;51.336;12.340;2023-07-30T01:45:09;16.80;99.90
2062;DHT22;11070;51.336;12.340;2023-07-30T01:47:35;16.80;99.90
2062;DHT22;11070;51.336;12.340;2023-07-30T01:50:01;16.80;99.90
2062;DHT22;11070;51.336;12.340;2023-07-30T01:52:27;16.80;99.90
2062;DHT22;11070;51.336;12.340;2023-07-30T01:54:52;16.80;99.90
2062;DHT22;11070;51.336;12.340;2023-07-30T01:57:18;16.80;99.90
2062;DHT22;11070;51.336;12.340;2023-07-30T01:59:43;16.90;99.90
2062;DHT22;11070;51.336;12.340;2023-07-30T02:02:09;16.70;99.90
2062;DHT22;11070;51.336;12.340;2023-07-30T02:04:35;16.70;99.90
2062;DHT22;11070;51.336;12.340;2023-07-30T02:07:00;16.70;99.90
2062;DHT22;11070;51.336;12.340;2023-07-30T02:09:26;16.70;99.90
2062;DHT22;11070;51.336;12.340;2023-07-30T02:11:52;16.60;99.90
2062;DHT22;11070;51.336;12.340;2023-07-30T02:14:18;16.60;99.90
2062;DHT22;11070;51.336;12.340;2023-07-30T02:16:44;16.70;99.90
2062;DHT22;11070;51.336;12.340;2023-07-30T02:19:09;16.70;99.90
2062;DHT22;11070;51.336;12.340;2023-07-30T02:21:35;16.70;99.90
2062;DHT22;11070;51.336;12.340;2023-07-30T02:24:02;16.70;99.90
2062;DHT22;11070;51.336;12.340;2023-07-30T02:26:28;16.70;99.90
2062;DHT22;11070;51.336;12.340;2023-07-30T02:28:54;16.70;99.90
2062;DHT22;11070;51.336;12.340;2023-07-30T02:31:19;16.80;99.90
2062;DHT22;11070;51.336;12.340;2023-07-30T02:33:45;16.80;99.90
2062;DHT22;11070;51.336;12.340;2023-07-30T02:36:11;16.80;99.90
2062;DHT22;11070;51.336;12.340;2023-07-30T02:38:36;16.90;99.90
2062;DHT22;11070;51.336;12.340;2023-07-30T02:41:02;16.90;99.90
2062;DHT22;11070;51.336;12.340;2023-07-30T02:43:28;16.90;99.90
2062;DHT22;11070;51.336;12.340;2023-07-30T02:45:53;16.90;99.90
2062;DHT22;11070;51.336;12.340;2023-07-30T02:48:19;16.90;99.90
2062;DHT22;11070;51.336;12.340;2023-07-30T02:50:44;17.00;99.90
2062;DHT22;11070;51.336;12.340;2023-07-30T02:53:10;17.00;99.90
2062;DHT22;11070;51.336;12.340;2023-07-30T02:55:36;17.00;99.90
2062;DHT22;11070;51.336;12.340;2023-07-30T02:58:01;17.00;99.90
2062;DHT22;11070;51.336;12.340;2023-07-30T03:00:27;17.10;99.90
2062;DHT22;11070;51.336;12.340;2023-07-30T03:02:53;17.10;99.90
2062;DHT22;11070;51.336;12.340;2023-07-30T03:05:18;17.10;99.90
2062;DHT22;11070;51.336;12.340;2023-07-30T03:07:44;17.20;99.90
2062;DHT22;11070;51.336;12.340;2023-07-30T03:10:10;17.20;99.90
2062;DHT22;11070;51.336;12.340;2023-07-30T03:12:35;17.20;99.90
2062;DHT22;11070;51.336;12.340;2023-07-30T03:15:01;17.30;99.90
2062;DHT22;11070;51.336;12.340;2023-07-30T03:17:27;17.30;99.90
2062;DHT22;11070;51.336;12.340;2023-07-30T03:19:52;17.30;99.90
2062;DHT22;11070;51.336;12.340;2023-07-30T03:22:18;17.30;99.90
2062;DHT22;11070;51.336;12.340;2023-07-30T03:24:46;17.20;99.90
2062;DHT22;11070;51.336;12.340;2023-07-30T03:27:12;17.20;99.90
2062;DHT22;11070;51.336;12.340;2023-07-30T03:29:37;17.20;99.90
2062;DHT22;11070;51.336;12.340;2023-07-30T03:32:03;17.20;99.90
2062;DHT22;11070;51.336;12.340;2023-07-30T03:34:29;17.20;99.90
2062;DHT22;11070;51.336;12.340;2023-07-30T03:36:54;17.20;99.90
2062;DHT22;11070;51.336;12.340;2023-07-30T03:39:20;17.20;99.90
2062;DHT22;11070;51.336;12.340;2023-07-30T03:41:46;17.20;99.90
2062;DHT22;11070;51.336;12.340;2023-07-30T03:44:11;17.20;99.90
2062;DHT22;11070;51.336;12.340;2023-07-30T03:46:37;17.10;99.90
2062;DHT22;11070;51.336;12.340;2023-07-30T03:49:03;17.10;99.90
2062;DHT22;11070;51.336;12.340;2023-07-30T03:51:28;17.10;99.90
2062;DHT22;11070;51.336;12.340;2023-07-30T03:53:54;17.10;99.90
2062;DHT22;11070;51.336;12.340;2023-07-30T03:56:19;17.10;99.90
2062;DHT22;11070;51.336;12.340;2023-07-30T03:58:45;17.10;99.90
2062;DHT22;11070;51.336;12.340;2023-07-30T04:01:11;17.10;99.90
2062;DHT22;11070;51.336;12.340;2023-07-30T04:03:36;17.10;99.90
2062;DHT22;11070;51.336;12.340;2023-07-30T04:06:02;17.10;99.90
2062;DHT22;11070;51.336;12.340;2023-07-30T04:08:28;17.20;99.90
2062;DHT22;11070;51.336;12.340;2023-07-30T04:10:53;17.30;99.90
2062;DHT22;11070;51.336;12.340;2023-07-30T04:13:19;17.30;99.90
2062;DHT22;11070;51.336;12.340;2023-07-30T04:15:47;17.30;99.90
2062;DHT22;11070;51.336;12.340;2023-07-30T04:18:13;17.30;99.90
2062;DHT22;11070;51.336;12.340;2023-07-30T04:20:38;17.30;99.90
2062;DHT22;11070;51.336;12.340;2023-07-30T04:23:04;17.30;99.90
2062;DHT22;11070;51.336;12.340;2023-07-30T04:25:29;17.40;99.90
2062;DHT22;11070;51.336;12.340;2023-07-30T04:27:55;17.40;99.90
2062;DHT22;11070;51.336;12.340;2023-07-30T04:30:21;17.50;99.90
2062;DHT22;11070;51.336;12.340;2023-07-30T04:32:46;17.60;99.90
2062;DHT22;11070;51.336;12.340;2023-07-30T04:35:12;17.60;99.90
2062;DHT22;11070;51.336;12.340;2023-07-30T04:37:37;17.60;99.90
2062;DHT22;11070;51.336;12.340;2023-07-30T04:40:03;17.70;99.90
2062;DHT22;11070;51.336;12.340;2023-07-30T04:42:29;17.70;99.90
2062;DHT22;11070;51.336;12.340;2023-07-30T04:44:58;17.70;99.90
2062;DHT22;11070;51.336;12.340;2023-07-30T04:47:24;17.70;99.90
2062;DHT22;11070;51.336;12.340;2023-07-30T04:49:49;17.70;99.90
2062;DHT22;11070;51.336;12.340;2023-07-30T04:52:15;17.80;99.90
2062;DHT22;11070;51.336;12.340;2023-07-30T04:54:41;17.80;99.90
2062;DHT22;11070;51.336;12.340;2023-07-30T04:57:06;17.80;99.90
2062;DHT22;11070;51.336;12.340;2023-07-30T04:59:32;17.80;99.90
2062;DHT22;11070;51.336;12.340;2023-07-30T05:01:59;17.80;99.90
2062;DHT22;11070;51.336;12.340;2023-07-30T05:04:25;17.70;99.90
2062;DHT22;11070;51.336;12.340;2023-07-30T05:06:51;17.70;99.90
2062;DHT22;11070;51.336;12.340;2023-07-30T05:09:17;17.70;99.90
2062;DHT22;11070;51.336;12.340;2023-07-30T05:11:42;17.80;99.90
2062;DHT22;11070;51.336;12.340;2023-07-30T05:14:08;17.80;99.90
2062;DHT22;11070;51.336;12.340;2023-07-30T05:16:34;17.80;99.90
2062;DHT22;11070;51.336;12.340;2023-07-30T05:19:01;17.80;99.90
2062;DHT22;11070;51.336;12.340;2023-07-30T05:21:27;17.90;99.90
2062;DHT22;11070;51.336;12.340;2023-07-30T05:23:53;18.00;99.90
2062;DHT22;11070;51.336;12.340;2023-07-30T05:26:18;18.10;99.90
2062;DHT22;11070;51.336;12.340;2023-07-30T05:28:44;18.20;99.90
2062;DHT22;11070;51.336;12.340;2023-07-30T05:31:10;18.40;99.90
2062;DHT22;11070;51.336;12.340;2023-07-30T05:33:35;18.50;99.90
2062;DHT22;11070;51.336;12.340;2023-07-30T05:36:01;18.40;99.90
2062;DHT22;11070;51.336;12.340;2023-07-30T05:38:27;18.40;99.90
2062;DHT22;11070;51.336;12.340;2023-07-30T05:40:53;18.40;99.90
2062;DHT22;11070;51.336;12.340;2023-07-30T05:43:18;18.50;99.90
2062;DHT22;11070;51.336;12.340;2023-07-30T05:45:44;18.60;99.90
2062;DHT22;11070;51.336;12.340;2023-07-30T05:48:10;18.70;99.90
2062;DHT22;11070;51.336;12.340;2023-07-30T05:50:36;18.90;99.90
2062;DHT22;11070;51.336;12.340;2023-07-30T05:53:01;18.90;99.90
2062;DHT22;11070;51.336;12.340;2023-07-30T05:55:27;19.00;99.90
2062;DHT22;11070;51.336;12.340;2023-07-30T05:57:53;19.00;99.90
2062;DHT22;11070;51.336;12.340;2023-07-30T06:00:19;19.10;99.90
2062;DHT22;11070;51.336;12.340;2023-07-30T06:02:45;19.30;99.90
2062;DHT22;11070;51.336;12.340;2023-07-30T06:05:10;19.40;99.90
2062;DHT22;11070;51.336;12.340;2023-07-30T06:07:37;19.60;99.90
2062;DHT22;11070;51.336;12.340;2023-07-30T06:10:03;19.70;99.90
2062;DHT22;11070;51.336;12.340;2023-07-30T06:12:29;19.80;99.90
2062;DHT22;11070;51.336;12.340;2023-07-30T06:14:54;19.90;99.90
2062;DHT22;11070;51.336;12.340;2023-07-30T06:17:20;20.00;99.90
2062;DHT22;11070;51.336;12.340;2023-07-30T06:19:46;20.10;99.90
2062;DHT22;11070;51.336;12.340;2023-07-30T06:22:11;20.10;99.90
2062;DHT22;11070;51.336;12.340;2023-07-30T06:24:37;20.20;99.90
2062;DHT22;11070;51.336;12.340;2023-07-30T06:27:03;20.10;99.90
2062;DHT22;11070;51.336;12.340;2023-07-30T06:29:29;20.10;99.90
2062;DHT22;11070;51.336;12.340;2023-07-30T06:31:54;20.10;99.90
2062;DHT22;11070;51.336;12.340;2023-07-30T06:34:20;20.10;99.90
2062;DHT22;11070;51.336;12.340;2023-07-30T06:36:46;20.00;99.90
2062;DHT22;11070;51.336;12.340;2023-07-30T06:39:11;20.10;99.90
2062;DHT22;11070;51.336;12.340;2023-07-30T06:41:37;20.20;99.90
2062;DHT22;11070;51.336;12.340;2023-07-30T06:44:03;20.60;99.90
2062;DHT22;11070;51.336;12.340;2023-07-30T06:46:28;20.90;99.90
2062;DHT22;11070;51.336;12.340;2023-07-30T06:48:54;21.00;99.90
2062;DHT22;11070;51.336;12.340;2023-07-30T06:51:20;21.20;99.90
2062;DHT22;11070;51.336;12.340;2023-07-30T06:53:49;21.20;99.90
2062;DHT22;11070;51.336;12.340;2023-07-30T06:56:15;21.40;99.90
2062;DHT22;11070;51.336;12.340;2023-07-30T06:58:40;21.70;99.90
2062;DHT22;11070;51.336;12.340;2023-07-30T07:01:06;21.80;99.90
2062;DHT22;11070;51.336;12.340;2023-07-30T07:03:32;22.10;99.90
2062;DHT22;11070;51.336;12.340;2023-07-30T07:05:57;22.30;99.90
2062;DHT22;11070;51.336;12.340;2023-07-30T07:08:23;22.50;99.90
2062;DHT22;11070;51.336;12.340;2023-07-30T07:10:49;22.80;99.90
2062;DHT22;11070;51.336;12.340;2023-07-30T07:13:15;22.80;99.90
2062;DHT22;11070;51.336;12.340;2023-07-30T07:15:42;22.80;99.90
2062;DHT22;11070;51.336;12.340;2023-07-30T07:18:08;22.60;99.90
2062;DHT22;11070;51.336;12.340;2023-07-30T07:20:34;22.30;99.90
2062;DHT22;11070;51.336;12.340;2023-07-30T07:22:59;22.20;99.90
2062;DHT22;11070;51.336;12.340;2023-07-30T07:25:25;22.10;99.90
2062;DHT22;11070;51.336;12.340;2023-07-30T07:27:51;22.10;99.90
2062;DHT22;11070;51.336;12.340;2023-07-30T07:30:16;22.00;99.90
2062;DHT22;11070;51.336;12.340;2023-07-30T07:32:42;22.20;99.90
2062;DHT22;11070;51.336;12.340;2023-07-30T07:35:09;22.50;99.90
2062;DHT22;11070;51.336;12.340;2023-07-30T07:37:34;22.50;99.90
2062;DHT22;11070;51.336;12.340;2023-07-30T07:40:00;22.40;99.90
2062;DHT22;11070;51.336;12.340;2023-07-30T07:42:26;22.60;99.90
2062;DHT22;11070;51.336;12.340;2023-07-30T07:44:52;22.90;99.90
2062;DHT22;11070;51.336;12.340;2023-07-30T07:47:17;22.90;99.90
2062;DHT22;11070;51.336;12.340;2023-07-30T07:49:43;22.70;99.90
2062;DHT22;11070;51.336;12.340;2023-07-30T07:52:08;22.80;99.90
2062;DHT22;11070;51.336;12.340;2023-07-30T07:54:34;22.60;99.90
2062;DHT22;11070;51.336;12.340;2023-07-30T07:57:00;22.50;99.90
2062;DHT22;11070;51.336;12.340;2023-07-30T07:59:26;22.40;99.90
2062;DHT22;11070;51.336;12.340;2023-07-30T08:01:53;22.30;99.90
2062;DHT22;11070;51.336;12.340;2023-07-30T08:04:19;22.40;99.90
2062;DHT22;11070;51.336;12.340;2023-07-30T08:06:46;22.20;99.90
2062;DHT22;11070;51.336;12.340;2023-07-30T08:09:12;22.10;99.90
2062;DHT22;11070;51.336;12.340;2023-07-30T08:11:38;22.40;99.90
2062;DHT22;11070;51.336;12.340;2023-07-30T08:14:04;22.90;99.90
2062;DHT22;11070;51.336;12.340;2023-07-30T08:16:33;23.10;99.90
2062;DHT22;11070;51.336;12.340;2023-07-30T08:18:58;23.10;99.90
2062;DHT22;11070;51.336;12.340;2023-07-30T08:21:25;23.10;99.90
2062;DHT22;11070;51.336;12.340;2023-07-30T08:23:50;22.90;99.90
2062;DHT22;11070;51.336;12.340;2023-07-30T08:26:16;22.80;99.90
2062;DHT22;11070;51.336;12.340;2023-07-30T08:28:42;22.80;99.90
2062;DHT22;11070;51.336;12.340;2023-07-30T08:31:07;22.20;99.90
2062;DHT22;11070;51.336;12.340;2023-07-30T08:33:36;22.20;99.90
2062;DHT22;11070;51.336;12.340;2023-07-30T08:36:02;22.20;99.90
2062;DHT22;11070;51.336;12.340;2023-07-30T08:38:30;22.30;99.90
2062;DHT22;11070;51.336;12.340;2023-07-30T08:40:56;22.70;99.90
2062;DHT22;11070;51.336;12.340;2023-07-30T08:43:22;23.30;99.90
2062;DHT22;11070;51.336;12.340;2023-07-30T08:45:48;23.50;99.90
2062;DHT22;11070;51.336;12.340;2023-07-30T08:48:14;23.90;99.90
2062;DHT22;11070;51.336;12.340;2023-07-30T08:50:40;24.30;99.90
2062;DHT22;11070;51.336;12.340;2023-07-30T08:53:07;24.20;99.90
2062;DHT22;11070;51.336;12.340;2023-07-30T08:55:33;23.80;99.90
2062;DHT22;11070;51.336;12.340;2023-07-30T08:58:01;23.40;99.90
2062;DHT22;11070;51.336;12.340;2023-07-30T09:00:36;23.70;99.90
2062;DHT22;11070;51.336;12.340;2023-07-30T09:03:09;24.40;99.90
2062;DHT22;11070;51.336;12.340;2023-07-30T09:05:41;24.50;99.90
2062;DHT22;11070;51.336;12.340;2023-07-30T09:08:06;24.20;99.90
2062;DHT22;11070;51.336;12.340;2023-07-30T09:10:34;24.10;99.90
2062;DHT22;11070;51.336;12.340;2023-07-30T09:13:01;24.60;99.90
2062;DHT22;11070;51.336;12.340;2023-07-30T09:15:36;24.10;99.90
2062;DHT22;11070;51.336;12.340;2023-07-30T09:18:06;24.20;99.90
2062;DHT22;11070;51.336;12.340;2023-07-30T09:20:39;24.40;99.90
2062;DHT22;11070;51.336;12.340;2023-07-30T09:23:06;23.80;99.90
2062;DHT22;11070;51.336;12.340;2023-07-30T09:25:32;23.60;99.90
2062;DHT22;11070;51.336;12.340;2023-07-30T09:27:58;24.10;99.90
2062;DHT22;11070;51.336;12.340;2023-07-30T09:30:25;24.60;99.90
2062;DHT22;11070;51.336;12.340;2023-07-30T09:32:56;25.10;99.90
2062;DHT22;11070;51.336;12.340;2023-07-30T09:35:24;25.10;99.90
2062;DHT22;11070;51.336;12.340;2023-07-30T09:37:57;25.30;99.90
2062;DHT22;11070;51.336;12.340;2023-07-30T09:40:34;25.30;99.10
2062;DHT22;11070;51.336;12.340;2023-07-30T09:43:02;25.90;97.90
2062;DHT22;11070;51.336;12.340;2023-07-30T09:45:28;26.00;97.00
2062;DHT22;11070;51.336;12.340;2023-07-30T09:47:54;25.80;93.80
2062;DHT22;11070;51.336;12.340;2023-07-30T09:50:22;26.00;94.40
2062;DHT22;11070;51.336;12.340;2023-07-30T09:52:48;26.50;94.00
2062;DHT22;11070;51.336;12.340;2023-07-30T09:55:15;26.90;93.20
2062;DHT22;11070;51.336;12.340;2023-07-30T09:57:41;27.40;91.50
2062;DHT22;11070;51.336;12.340;2023-07-30T10:00:07;27.60;90.80
2062;DHT22;11070;51.336;12.340;2023-07-30T10:02:38;26.80;90.60
2062;DHT22;11070;51.336;12.340;2023-07-30T10:05:10;26.30;92.60
2062;DHT22;11070;51.336;12.340;2023-07-30T10:07:40;26.00;92.70
2062;DHT22;11070;51.336;12.340;2023-07-30T10:10:07;26.10;92.40
2062;DHT22;11070;51.336;12.340;2023-07-30T10:12:34;26.30;92.10
2062;DHT22;11070;51.336;12.340;2023-07-30T10:15:01;25.20;92.20
2062;DHT22;11070;51.336;12.340;2023-07-30T10:17:27;25.30;93.20
2062;DHT22;11070;51.336;12.340;2023-07-30T10:19:56;24.90;93.90
2062;DHT22;11070;51.336;12.340;2023-07-30T10:22:23;24.80;94.10
2062;DHT22;11070;51.336;12.340;2023-07-30T10:25:00;24.90;94.50
2062;DHT22;11070;51.336;12.340;2023-07-30T10:27:48;25.00;95.10
2062;DHT22;11070;51.336;12.340;2023-07-30T10:30:19;25.70;93.50
2062;DHT22;11070;51.336;12.340;2023-07-30T10:33:01;26.20;93.20
2062;DHT22;11070;51.336;12.340;2023-07-30T10:35:46;26.20;90.90
2062;DHT22;11070;51.336;12.340;2023-07-30T10:38:16;26.20;90.60
2062;DHT22;11070;51.336;12.340;2023-07-30T10:40:42;25.50;90.80
2062;DHT22;11070;51.336;12.340;2023-07-30T10:43:17;25.40;91.80
2062;DHT22;11070;51.336;12.340;2023-07-30T10:45:50;25.80;91.60
2062;DHT22;11070;51.336;12.340;2023-07-30T10:48:16;25.80;91.40
2062;DHT22;11070;51.336;12.340;2023-07-30T10:50:42;26.60;90.70
2062;DHT22;11070;51.336;12.340;2023-07-30T10:53:08;27.50;87.90
2062;DHT22;11070;51.336;12.340;2023-07-30T10:55:34;28.10;84.50
2062;DHT22;11070;51.336;12.340;2023-07-30T10:58:01;26.90;84.50
2062;DHT22;11070;51.336;12.340;2023-07-30T11:00:27;26.50;86.80
2062;DHT22;11070;51.336;12.340;2023-07-30T11:02:54;27.10;86.60
2062;DHT22;11070;51.336;12.340;2023-07-30T11:05:19;27.60;84.20
2062;DHT22;11070;51.336;12.340;2023-07-30T11:07:52;28.00;83.70
2062;DHT22;11070;51.336;12.340;2023-07-30T11:10:18;27.80;79.60
2062;DHT22;11070;51.336;12.340;2023-07-30T11:12:44;27.70;80.80
2062;DHT22;11070;51.336;12.340;2023-07-30T11:15:09;27.80;81.40
2062;DHT22;11070;51.336;12.340;2023-07-30T11:17:35;28.20;79.90
2062;DHT22;11070;51.336;12.340;2023-07-30T11:20:01;28.00;79.00
2062;DHT22;11070;51.336;12.340;2023-07-30T11:22:35;27.40;80.10
2062;DHT22;11070;51.336;12.340;2023-07-30T11:25:00;27.60;81.50
2062;DHT22;11070;51.336;12.340;2023-07-30T11:27:45;28.30;79.40
2062;DHT22;11070;51.336;12.340;2023-07-30T11:30:10;28.20;77.30
2062;DHT22;11070;51.336;12.340;2023-07-30T11:32:36;28.10;78.40
2062;DHT22;11070;51.336;12.340;2023-07-30T11:35:02;28.60;77.60
2062;DHT22;11070;51.336;12.340;2023-07-30T11:37:28;28.60;77.60
2062;DHT22;11070;51.336;12.340;2023-07-30T11:39:54;28.70;76.60
2062;DHT22;11070;51.336;12.340;2023-07-30T11:42:19;28.20;75.90
2062;DHT22;11070;51.336;12.340;2023-07-30T11:44:45;28.10;77.60
2062;DHT22;11070;51.336;12.340;2023-07-30T11:47:11;28.30;78.70
2062;DHT22;11070;51.336;12.340;2023-07-30T11:49:37;28.60;78.10
2062;DHT22;11070;51.336;12.340;2023-07-30T11:52:09;28.40;77.70
2062;DHT22;11070;51.336;12.340;2023-07-30T11:54:36;28.80;77.90
2062;DHT22;11070;51.336;12.340;2023-07-30T11:57:01;29.60;74.90
2062;DHT22;11070;51.336;12.340;2023-07-30T11:59:27;29.90;73.40
2062;DHT22;11070;51.336;12.340;2023-07-30T12:01:53;29.10;73.70
2062;DHT22;11070;51.336;12.340;2023-07-30T12:04:19;28.30;74.90
2062;DHT22;11070;51.336;12.340;2023-07-30T12:06:49;27.70;77.20
2062;DHT22;11070;51.336;12.340;2023-07-30T12:09:21;27.70;77.50
2062;DHT22;11070;51.336;12.340;2023-07-30T12:11:58;28.00;77.10
2062;DHT22;11070;51.336;12.340;2023-07-30T12:14:26;27.80;76.70
2062;DHT22;11070;51.336;12.340;2023-07-30T12:16:56;27.90;76.30
2062;DHT22;11070;51.336;12.340;2023-07-30T12:19:21;28.00;76.40
2062;DHT22;11070;51.336;12.340;2023-07-30T12:21:47;28.00;76.90
2062;DHT22;11070;51.336;12.340;2023-07-30T12:24:12;27.70;77.60
2062;DHT22;11070;51.336;12.340;2023-07-30T12:26:38;28.00;77.60
2062;DHT22;11070;51.336;12.340;2023-07-30T12:29:04;28.30;77.20
2062;DHT22;11070;51.336;12.340;2023-07-30T12:31:29;28.40;75.70
2062;DHT22;11070;51.336;12.340;2023-07-30T12:33:55;27.80;75.80
2062;DHT22;11070;51.336;12.340;2023-07-30T12:36:21;27.40;76.90
2062;DHT22;11070;51.336;12.340;2023-07-30T12:38:46;27.10;78.30
2062;DHT22;11070;51.336;12.340;2023-07-30T12:41:12;26.90;79.10
2062;DHT22;11070;51.336;12.340;2023-07-30T12:43:38;26.80;81.40
2062;DHT22;11070;51.336;12.340;2023-07-30T12:46:04;26.60;81.40
2062;DHT22;11070;51.336;12.340;2023-07-30T12:48:29;26.40;82.80
2062;DHT22;11070;51.336;12.340;2023-07-30T12:50:55;26.10;85.60
2062;DHT22;11070;51.336;12.340;2023-07-30T12:53:21;25.90;86.90
2062;DHT22;11070;51.336;12.340;2023-07-30T12:55:46;25.60;88.20
2062;DHT22;11070;51.336;12.340;2023-07-30T12:58:12;25.30;90.30
2062;DHT22;11070;51.336;12.340;2023-07-30T13:00:38;24.90;91.00
2062;DHT22;11070;51.336;12.340;2023-07-30T13:03:04;23.90;98.40
2062;DHT22;11070;51.336;12.340;2023-07-30T13:05:29;22.20;99.90
2062;DHT22;11070;51.336;12.340;2023-07-30T13:07:55;21.50;99.90
2062;DHT22;11070;51.336;12.340;2023-07-30T13:10:20;20.90;99.90
2062;DHT22;11070;51.336;12.340;2023-07-30T13:12:46;20.90;99.90
2062;DHT22;11070;51.336;12.340;2023-07-30T13:15:12;21.30;99.90
2062;DHT22;11070;51.336;12.340;2023-07-30T13:17:38;21.80;99.90
2062;DHT22;11070;51.336;12.340;2023-07-30T13:20:04;22.30;99.90
2062;DHT22;11070;51.336;12.340;2023-07-30T13:22:31;23.00;99.90
2062;DHT22;11070;51.336;12.340;2023-07-30T13:24:56;23.40;99.90
2062;DHT22;11070;51.336;12.340;2023-07-30T13:27:22;23.70;99.90
2062;DHT22;11070;51.336;12.340;2023-07-30T13:29:48;23.70;99.90
2062;DHT22;11070;51.336;12.340;2023-07-30T13:32:14;23.80;99.90
2062;DHT22;11070;51.336;12.340;2023-07-30T13:34:40;23.80;99.90
2062;DHT22;11070;51.336;12.340;2023-07-30T13:37:06;24.00;99.90
2062;DHT22;11070;51.336;12.340;2023-07-30T13:39:32;23.90;99.90
2062;DHT22;11070;51.336;12.340;2023-07-30T13:41:57;24.00;99.90
2062;DHT22;11070;51.336;12.340;2023-07-30T13:44:23;24.10;99.90
2062;DHT22;11070;51.336;12.340;2023-07-30T13:46:49;24.10;99.90
2062;DHT22;11070;51.336;12.340;2023-07-30T13:49:15;24.10;99.90
2062;DHT22;11070;51.336;12.340;2023-07-30T13:51:41;24.10;99.90
2062;DHT22;11070;51.336;12.340;2023-07-30T13:54:07;24.10;99.90
2062;DHT22;11070;51.336;12.340;2023-07-30T13:56:33;24.20;99.90
2062;DHT22;11070;51.336;12.340;2023-07-30T13:58:59;24.20;99.90
2062;DHT22;11070;51.336;12.340;2023-07-30T14:01:25;24.30;99.90
2062;DHT22;11070;51.336;12.340;2023-07-30T14:03:51;24.30;99.90
2062;DHT22;11070;51.336;12.340;2023-07-30T14:06:17;24.30;99.90
2062;DHT22;11070;51.336;12.340;2023-07-30T14:08:42;24.10;99.90
2062;DHT22;11070;51.336;12.340;2023-07-30T14:11:08;24.10;99.90
2062;DHT22;11070;51.336;12.340;2023-07-30T14:13:34;24.20;99.90
2062;DHT22;11070;51.336;12.340;2023-07-30T14:15:59;24.30;99.90
2062;DHT22;11070;51.336;12.340;2023-07-30T14:18:25;24.50;99.90
2062;DHT22;11070;51.336;12.340;2023-07-30T14:20:51;24.30;99.90
2062;DHT22;11070;51.336;12.340;2023-07-30T14:23:17;24.20;99.90
2062;DHT22;11070;51.336;12.340;2023-07-30T14:25:43;24.10;99.90
2062;DHT22;11070;51.336;12.340;2023-07-30T14:28:09;24.00;99.90
2062;DHT22;11070;51.336;12.340;2023-07-30T14:30:34;23.80;99.90
2062;DHT22;11070;51.336;12.340;2023-07-30T14:33:01;23.50;99.90
2062;DHT22;11070;51.336;12.340;2023-07-30T14:35:28;23.20;99.90
2062;DHT22;11070;51.336;12.340;2023-07-30T14:37:54;23.10;99.90
2062;DHT22;11070;51.336;12.340;2023-07-30T14:40:19;22.80;99.90
2062;DHT22;11070;51.336;12.340;2023-07-30T14:42:45;22.60;99.90
2062;DHT22;11070;51.336;12.340;2023-07-30T14:45:12;22.40;99.90
2062;DHT22;11070;51.336;12.340;2023-07-30T14:47:37;22.20;99.90
2062;DHT22;11070;51.336;12.340;2023-07-30T14:50:05;22.00;99.90
2062;DHT22;11070;51.336;12.340;2023-07-30T14:52:31;21.80;99.90
2062;DHT22;11070;51.336;12.340;2023-07-30T14:54:57;21.70;99.90
2062;DHT22;11070;51.336;12.340;2023-07-30T14:57:22;21.70;99.90
2062;DHT22;11070;51.336;12.340;2023-07-30T14:59:48;21.60;99.90
2062;DHT22;11070;51.336;12.340;2023-07-30T15:02:14;21.40;99.90
2062;DHT22;11070;51.336;12.340;2023-07-30T15:04:40;21.30;99.90
2062;DHT22;11070;51.336;12.340;2023-07-30T15:07:05;21.40;99.90
2062;DHT22;11070;51.336;12.340;2023-07-30T15:09:31;21.70;99.90
2062;DHT22;11070;51.336;12.340;2023-07-30T15:12:01;21.80;99.90
2062;DHT22;11070;51.336;12.340;2023-07-30T15:14:27;21.90;99.90
2062;DHT22;11070;51.336;12.340;2023-07-30T15:16:56;21.80;99.90
2062;DHT22;11070;51.336;12.340;2023-07-30T15:19:22;21.70;99.90
2062;DHT22;11070;51.336;12.340;2023-07-30T15:21:47;21.60;99.90
2062;DHT22;11070;51.336;12.340;2023-07-30T15:24:13;21.60;99.90
2062;DHT22;11070;51.336;12.340;2023-07-30T15:26:38;21.60;99.90